createdAt,value
2022-08-02T00:01:36.405Z,28.19
2022-08-02T00:04:26.284Z,28.21
2022-08-02T00:07:17.269Z,28.24
2022-08-02T00:10:11.208Z,28.29
2022-08-02T00:13:00.842Z,28.37
2022-08-02T00:15:51.032Z,28.38
2022-08-02T00:18:41.664Z,28.40
2022-08-02T00:21:32.028Z,28.48
2022-08-02T00:24:30.598Z,28.55
2022-08-02T00:27:33.931Z,28.53
2022-08-02T00:30:24.314Z,28.45
2022-08-02T00:33:14.650Z,28.48
2022-08-02T00:36:05.452Z,28.48
2022-08-02T00:38:55.753Z,28.49
2022-08-02T00:41:54.589Z,28.48
2022-08-02T00:44:47.063Z,28.52
2022-08-02T00:47:37.492Z,28.53
2022-08-02T00:50:30.682Z,28.57
2022-08-02T00:53:20.398Z,28.61
2022-08-02T00:56:10.923Z,28.65
2022-08-02T00:59:03.638Z,28.64
2022-08-02T01:01:56.450Z,28.65
2022-08-02T01:04:50.688Z,28.68
2022-08-02T01:07:41.945Z,28.69
2022-08-02T01:10:32.071Z,28.64
2022-08-02T01:13:22.025Z,28.74
2022-08-02T01:16:18.002Z,28.76
2022-08-02T01:19:37.448Z,28.73
2022-08-02T01:23:00.993Z,28.82
2022-08-02T01:26:16.534Z,28.85
2022-08-02T01:29:11.120Z,28.85
2022-08-02T01:32:15.670Z,28.87
2022-08-02T01:35:12.601Z,28.92
2022-08-02T01:38:09.824Z,28.96
2022-08-02T01:41:01.937Z,29.00
2022-08-02T01:43:54.911Z,29.12
2022-08-02T01:46:45.075Z,29.15
2022-08-02T01:49:37.539Z,29.23
2022-08-02T01:52:34.864Z,29.28
2022-08-02T01:55:57.137Z,29.24
2022-08-02T01:58:44.534Z,29.31
2022-08-02T02:01:37.474Z,29.35
2022-08-02T02:04:36.172Z,29.40
2022-08-02T02:07:28.647Z,29.36
2022-08-02T02:10:21.660Z,29.42
2022-08-02T02:13:15.993Z,29.45
2022-08-02T02:16:07.889Z,29.48
2022-08-02T02:18:58.005Z,29.53
2022-08-02T02:21:48.217Z,29.61
2022-08-02T02:24:48.873Z,29.69
2022-08-02T02:27:40.275Z,29.65
2022-08-02T02:30:31.366Z,29.80
2022-08-02T02:33:29.359Z,29.81
2022-08-02T02:36:21.094Z,29.91
2022-08-02T02:39:13.618Z,29.89
2022-08-02T02:42:06.022Z,30.02
2022-08-02T02:44:56.405Z,30.10
2022-08-02T02:47:46.917Z,30.09
2022-08-02T02:50:37.620Z,30.11
2022-08-02T02:53:28.055Z,30.11
2022-08-02T02:56:18.349Z,30.15
2022-08-02T02:59:10.696Z,30.14
2022-08-02T03:02:01.801Z,30.19
2022-08-02T03:04:56.889Z,30.30
2022-08-02T03:07:47.138Z,30.38
2022-08-02T03:10:37.614Z,30.42
2022-08-02T03:13:33.146Z,30.43
2022-08-02T03:16:29.845Z,30.44
2022-08-02T03:19:21.106Z,30.53
2022-08-02T03:22:11.388Z,30.53
2022-08-02T03:25:01.287Z,30.62
2022-08-02T03:27:50.611Z,30.66
2022-08-02T03:30:41.235Z,30.71
2022-08-02T03:33:31.961Z,30.78
2022-08-02T03:36:25.743Z,30.70
2022-08-02T03:39:18.346Z,30.76
2022-08-02T03:42:09.252Z,30.81
2022-08-02T03:45:08.767Z,30.88
2022-08-02T03:47:59.495Z,30.97
2022-08-02T03:50:50.207Z,31.11
2022-08-02T03:53:43.015Z,31.14
2022-08-02T03:56:33.412Z,31.30
2022-08-02T03:59:23.203Z,31.37
2022-08-02T04:02:14.852Z,31.44
2022-08-02T04:05:05.780Z,31.53
2022-08-02T04:08:32.519Z,31.62
2022-08-02T04:11:24.654Z,31.61
2022-08-02T04:14:15.225Z,31.63
2022-08-02T04:17:08.447Z,31.59
2022-08-02T04:20:08.143Z,31.60
2022-08-02T04:23:10.140Z,31.63
2022-08-02T04:26:01.523Z,31.60
2022-08-02T04:28:52.114Z,31.60
2022-08-02T04:31:43.527Z,31.67
2022-08-02T04:34:33.990Z,31.70
2022-08-02T04:37:23.928Z,31.69
2022-08-02T04:40:14.666Z,31.73
2022-08-02T04:43:05.165Z,31.76
2022-08-02T04:45:56.460Z,31.76
2022-08-02T04:48:47.372Z,31.81
2022-08-02T04:51:42.671Z,31.85
2022-08-02T04:54:34.098Z,31.82
2022-08-02T04:57:50.703Z,31.93
2022-08-02T05:00:43.376Z,31.99
2022-08-02T05:03:33.760Z,32.03
2022-08-02T05:06:23.716Z,32.14
2022-08-02T05:09:13.794Z,32.21
2022-08-02T05:12:03.555Z,32.17
2022-08-02T05:14:53.862Z,32.15
2022-08-02T05:17:48.251Z,32.13
2022-08-02T05:20:38.985Z,32.06
2022-08-02T05:23:28.775Z,32.00
2022-08-02T05:26:18.855Z,32.01
2022-08-02T05:29:08.843Z,31.96
2022-08-02T05:31:59.342Z,31.93
2022-08-02T05:34:50.421Z,31.91
2022-08-02T05:37:40.125Z,31.77
2022-08-02T05:40:32.748Z,31.84
2022-08-02T05:43:22.871Z,31.82
2022-08-02T05:46:13.447Z,31.80
2022-08-02T05:49:05.813Z,31.81
2022-08-02T05:52:05.669Z,31.74
2022-08-02T05:55:10.548Z,31.71
2022-08-02T05:58:25.898Z,31.67
2022-08-02T06:01:20.344Z,31.78
2022-08-02T06:04:12.377Z,31.84
2022-08-02T06:07:07.943Z,32.05
2022-08-02T06:10:01.174Z,32.29
2022-08-02T06:13:03.406Z,32.52
2022-08-02T06:16:00.833Z,32.77
2022-08-02T06:18:51.051Z,33.03
2022-08-02T06:22:33.327Z,33.23
2022-08-02T06:24:58.235Z,33.45
2022-08-02T06:27:49.078Z,33.50
2022-08-02T06:30:39.728Z,33.57
2022-08-02T06:33:29.538Z,33.60
2022-08-02T06:36:29.060Z,33.61
2022-08-02T06:39:52.276Z,33.79
2022-08-02T06:43:11.209Z,33.84
2022-08-02T06:46:37.572Z,33.82
2022-08-02T06:49:10.938Z,33.74
2022-08-02T06:52:00.560Z,33.80
2022-08-02T06:54:50.480Z,33.81
2022-08-02T06:57:40.222Z,33.93
2022-08-02T07:00:30.051Z,34.12
2022-08-02T07:03:20.362Z,34.23
2022-08-02T07:06:11.125Z,34.32
2022-08-02T07:09:20.069Z,34.42
2022-08-02T07:12:10.888Z,34.53
2022-08-02T07:15:06.698Z,34.45
2022-08-02T07:17:57.061Z,34.36
2022-08-02T07:20:51.733Z,34.11
2022-08-02T07:23:41.945Z,33.93
2022-08-02T07:26:31.531Z,33.71
2022-08-02T07:29:21.386Z,33.47
2022-08-02T07:32:11.578Z,33.26
2022-08-02T07:35:04.053Z,33.10
2022-08-02T07:38:01.875Z,32.95
2022-08-02T07:40:51.866Z,32.84
2022-08-02T07:43:42.377Z,32.83
2022-08-02T07:46:32.574Z,32.74
2022-08-02T07:49:22.632Z,32.66
2022-08-02T07:52:13.560Z,32.51
2022-08-02T07:55:04.120Z,32.47
2022-08-02T07:57:54.634Z,32.40
2022-08-02T08:00:45.397Z,32.31
2022-08-02T08:03:36.309Z,32.28
2022-08-02T08:06:28.747Z,32.22
2022-08-02T08:09:19.360Z,32.23
2022-08-02T08:12:10.930Z,32.23
2022-08-02T08:15:01.092Z,32.11
2022-08-02T08:17:50.916Z,32.05
2022-08-02T08:20:40.854Z,32.00
2022-08-02T08:23:31.292Z,32.00
2022-08-02T08:26:20.759Z,31.96
2022-08-02T08:29:10.053Z,31.86
2022-08-02T08:32:01.188Z,31.88
2022-08-02T08:34:52.689Z,31.94
2022-08-02T08:37:42.595Z,31.89
2022-08-02T08:40:32.260Z,31.91
2022-08-02T08:43:22.937Z,31.85
2022-08-02T08:46:35.971Z,31.83
2022-08-02T08:49:52.366Z,31.79
2022-08-02T08:52:54.980Z,31.78
2022-08-02T08:55:45.644Z,31.75
2022-08-02T08:58:35.932Z,31.70
2022-08-02T09:01:26.767Z,31.71
2022-08-02T09:04:36.948Z,31.63
2022-08-02T09:07:27.574Z,31.63
2022-08-02T09:10:36.618Z,31.59
2022-08-02T09:13:45.264Z,31.56
2022-08-02T09:16:41.397Z,31.59
2022-08-02T09:19:35.013Z,31.54
2022-08-02T09:22:24.638Z,31.55
2022-08-02T09:25:18.333Z,31.45
2022-08-02T09:28:08.508Z,31.44
2022-08-02T09:31:09.973Z,31.38
2022-08-02T09:34:01.651Z,31.40
2022-08-02T09:36:54.360Z,31.34
2022-08-02T09:39:50.090Z,31.32
2022-08-02T09:43:02.880Z,31.30
2022-08-02T09:45:52.224Z,31.27
2022-08-02T09:48:59.521Z,31.28
2022-08-02T09:51:52.278Z,31.29
2022-08-02T09:54:44.276Z,31.24
2022-08-02T09:57:35.097Z,31.22
2022-08-02T10:00:37.428Z,31.19
2022-08-02T10:03:35.082Z,31.21
2022-08-02T10:06:28.185Z,31.17
2022-08-02T10:09:18.007Z,31.16
2022-08-02T10:12:08.391Z,31.17
2022-08-02T10:14:58.141Z,31.16
2022-08-02T10:17:49.310Z,31.13
2022-08-02T10:20:46.458Z,31.08
2022-08-02T10:23:36.696Z,31.09
2022-08-02T10:26:27.162Z,31.09
2022-08-02T10:29:53.800Z,31.07
2022-08-02T10:32:47.202Z,31.02
2022-08-02T10:35:40.929Z,30.98
2022-08-02T10:38:30.734Z,31.01
2022-08-02T10:41:53.328Z,31.03
2022-08-02T10:44:43.823Z,30.95
2022-08-02T10:47:34.503Z,30.95
2022-08-02T10:50:48.392Z,31.01
2022-08-02T10:53:38.262Z,30.94
2022-08-02T10:56:47.945Z,30.92
2022-08-02T10:59:38.821Z,30.90
2022-08-02T11:02:40.468Z,30.94
2022-08-02T11:05:43.042Z,30.86
2022-08-02T11:08:34.728Z,30.87
2022-08-02T11:11:53.865Z,30.91
2022-08-02T11:14:38.602Z,30.90
2022-08-02T11:17:38.115Z,30.90
2022-08-02T11:20:33.179Z,30.87
2022-08-02T11:23:44.525Z,30.86
2022-08-02T11:26:36.777Z,30.88
2022-08-02T11:29:49.457Z,30.92
2022-08-02T11:32:39.112Z,30.85
2022-08-02T11:35:40.237Z,30.80
2022-08-02T11:38:30.689Z,30.78
2022-08-02T11:41:46.195Z,30.75
2022-08-02T11:44:43.302Z,30.78
2022-08-02T11:47:35.971Z,30.76
2022-08-02T11:50:30.272Z,30.72
2022-08-02T11:53:20.673Z,30.73
2022-08-02T11:56:11.263Z,30.71
2022-08-02T11:59:14.519Z,30.74
2022-08-02T12:02:07.732Z,30.71
2022-08-02T12:05:02.141Z,30.68
2022-08-02T12:07:53.696Z,30.68
2022-08-02T12:10:51.324Z,30.68
2022-08-02T12:13:57.169Z,30.67
2022-08-02T12:17:05.799Z,30.70
2022-08-02T12:19:56.014Z,30.71
2022-08-02T12:22:47.021Z,30.67
2022-08-02T12:25:36.779Z,30.68
2022-08-02T12:28:28.196Z,30.68
2022-08-02T12:31:19.599Z,30.66
2022-08-02T12:34:19.428Z,30.68
2022-08-02T12:37:11.907Z,30.68
2022-08-02T12:40:01.422Z,30.46
2022-08-02T12:42:56.926Z,30.48
2022-08-02T12:45:56.862Z,30.47
2022-08-02T12:49:08.373Z,30.45
2022-08-02T12:52:00.973Z,30.43
2022-08-02T12:54:53.289Z,30.39
2022-08-02T12:58:18.856Z,30.39
2022-08-02T13:01:08.115Z,30.37
2022-08-02T13:04:07.915Z,30.37
2022-08-02T13:07:03.465Z,30.45
2022-08-02T13:10:00.231Z,30.45
2022-08-02T13:12:53.272Z,30.43
2022-08-02T13:15:50.164Z,30.44
2022-08-02T13:18:40.897Z,30.43
2022-08-02T13:21:40.049Z,30.44
2022-08-02T13:24:39.588Z,30.46
2022-08-02T13:27:31.849Z,30.49
2022-08-02T13:30:21.679Z,30.45
2022-08-02T13:33:11.508Z,30.39
2022-08-02T13:36:01.920Z,30.47
2022-08-02T13:38:52.413Z,30.45
2022-08-02T13:41:42.804Z,30.43
2022-08-02T13:44:33.810Z,30.43
2022-08-02T13:47:26.778Z,30.44
2022-08-02T13:50:26.155Z,30.46
2022-08-02T13:53:19.067Z,30.43
2022-08-02T13:56:09.268Z,30.36
2022-08-02T13:59:02.673Z,30.33
2022-08-02T14:02:12.984Z,30.36
2022-08-02T14:05:07.700Z,30.32
2022-08-02T14:08:00.439Z,30.32
2022-08-02T14:10:52.860Z,30.35
2022-08-02T14:13:42.821Z,30.31
2022-08-02T14:16:33.084Z,30.27
2022-08-02T14:19:25.873Z,30.30
2022-08-02T14:22:15.741Z,30.27
2022-08-02T14:25:09.294Z,30.30
2022-08-02T14:27:59.748Z,30.37
2022-08-02T14:30:49.724Z,30.37
2022-08-02T14:33:39.729Z,30.33
2022-08-02T14:36:29.951Z,30.32
2022-08-02T14:39:19.801Z,30.35
2022-08-02T14:42:09.417Z,30.34
2022-08-02T14:44:59.484Z,30.30
2022-08-02T14:47:49.378Z,30.34
2022-08-02T14:50:39.145Z,30.34
2022-08-02T14:53:28.899Z,30.31
2022-08-02T14:56:28.202Z,30.29
2022-08-02T14:59:17.915Z,30.30
2022-08-02T15:02:09.186Z,30.24
2022-08-02T15:05:01.386Z,30.26
2022-08-02T15:07:51.044Z,30.25
2022-08-02T15:10:40.468Z,30.26
2022-08-02T15:13:30.098Z,30.23
2022-08-02T15:16:19.817Z,30.22
2022-08-02T15:19:09.926Z,30.23
2022-08-02T15:22:03.152Z,30.22
2022-08-02T15:24:55.631Z,30.16
2022-08-02T15:27:46.366Z,30.17
2022-08-02T15:30:36.649Z,30.12
2022-08-02T15:33:29.051Z,30.12
2022-08-02T15:36:19.192Z,30.16
2022-08-02T15:39:08.742Z,30.14
2022-08-02T15:42:01.384Z,30.12
2022-08-02T15:44:51.622Z,30.09
2022-08-02T15:47:48.296Z,30.09
2022-08-02T15:50:40.643Z,30.09
2022-08-02T15:53:30.288Z,30.07
2022-08-02T15:56:23.776Z,30.05
2022-08-02T15:59:14.843Z,30.04
2022-08-02T16:02:05.717Z,30.02
2022-08-02T16:04:56.043Z,30.04
2022-08-02T16:07:47.128Z,30.05
2022-08-02T16:10:38.065Z,30.04
2022-08-02T16:13:52.914Z,29.99
2022-08-02T16:16:43.112Z,30.00
2022-08-02T16:19:49.061Z,30.02
2022-08-02T16:22:40.584Z,29.98
2022-08-02T16:25:30.242Z,29.98
2022-08-02T16:28:19.587Z,29.98
2022-08-02T16:31:11.663Z,29.97
2022-08-02T16:34:02.096Z,29.97
2022-08-02T16:36:51.240Z,29.91
2022-08-02T16:39:40.564Z,29.91
2022-08-02T16:42:29.683Z,29.92
2022-08-02T16:48:29.338Z,29.91
2022-08-02T16:51:19.963Z,29.91
2022-08-02T16:54:10.110Z,29.86
2022-08-02T16:56:59.566Z,29.85
2022-08-02T16:59:57.422Z,29.87
2022-08-02T17:02:59.823Z,29.86
2022-08-02T17:06:02.649Z,29.84
2022-08-02T17:08:55.031Z,29.80
2022-08-02T17:11:46.633Z,29.83
2022-08-02T17:14:54.474Z,29.78
2022-08-02T17:17:45.995Z,29.74
2022-08-02T17:20:36.520Z,29.73
2022-08-02T17:24:05.747Z,29.71
2022-08-02T17:26:38.504Z,29.70
2022-08-02T17:29:27.875Z,29.71
2022-08-02T17:32:22.302Z,29.72
2022-08-02T17:35:15.710Z,29.71
2022-08-02T17:38:06.754Z,29.69
2022-08-02T17:40:58.458Z,29.62
2022-08-02T17:43:48.317Z,29.65
2022-08-02T17:46:37.876Z,29.60
2022-08-02T17:49:28.143Z,29.60
2022-08-02T17:52:50.673Z,29.58
2022-08-02T17:55:31.076Z,29.56
2022-08-02T17:58:21.462Z,29.52
2022-08-02T18:01:24.068Z,29.52
2022-08-02T18:04:14.705Z,29.50
2022-08-02T18:07:09.671Z,29.49
2022-08-02T18:10:00.596Z,29.49
2022-08-02T18:12:50.506Z,29.44
2022-08-02T18:15:39.903Z,29.44
2022-08-02T18:18:30.475Z,29.44
2022-08-02T18:21:22.429Z,29.41
2022-08-02T18:24:13.011Z,29.46
2022-08-02T18:27:02.539Z,29.39
2022-08-02T18:30:00.261Z,29.40
2022-08-02T18:33:56.939Z,29.35
2022-08-02T18:36:04.061Z,29.33
2022-08-02T18:38:53.862Z,29.31
2022-08-02T18:41:47.920Z,29.29
2022-08-02T18:44:38.232Z,29.29
2022-08-02T18:47:32.977Z,29.29
2022-08-02T18:50:22.875Z,29.29
2022-08-02T18:56:32.567Z,29.27
2022-08-02T18:59:22.402Z,29.23
2022-08-02T19:02:14.053Z,29.26
2022-08-02T19:05:07.451Z,29.25
2022-08-02T19:07:57.616Z,29.23
2022-08-02T19:10:49.949Z,29.23
2022-08-02T19:13:42.674Z,29.17
2022-08-02T19:16:36.738Z,29.17
2022-08-02T19:19:28.731Z,29.18
2022-08-02T19:22:20.529Z,29.17
2022-08-02T19:25:14.344Z,29.15
2022-08-02T19:28:11.809Z,29.13
2022-08-02T19:31:02.060Z,29.14
2022-08-02T19:34:06.280Z,29.13
2022-08-02T19:36:57.787Z,29.11
2022-08-02T19:39:48.263Z,29.09
2022-08-02T19:42:41.671Z,29.07
2022-08-02T19:45:51.097Z,29.06
2022-08-02T19:48:45.289Z,29.06
2022-08-02T19:51:54.595Z,29.07
2022-08-02T19:54:55.174Z,29.06
2022-08-02T19:57:45.993Z,29.06
2022-08-02T20:00:37.191Z,29.04
2022-08-02T20:03:51.305Z,29.05
2022-08-02T20:06:36.476Z,29.03
2022-08-02T20:09:33.451Z,29.02
2022-08-02T20:12:37.421Z,29.01
2022-08-02T20:15:51.796Z,28.99
2022-08-02T20:18:38.165Z,28.97
2022-08-02T20:21:35.398Z,28.97
2022-08-02T20:24:26.756Z,28.96
2022-08-02T20:27:21.121Z,28.94
2022-08-02T20:30:14.565Z,28.96
2022-08-02T20:33:21.257Z,28.96
2022-08-02T20:36:11.812Z,28.91
2022-08-02T20:39:02.445Z,28.91
2022-08-02T20:41:53.139Z,28.90
2022-08-02T20:44:49.513Z,28.90
2022-08-02T20:47:40.118Z,28.88
2022-08-02T20:50:49.243Z,28.87
2022-08-02T20:53:54.757Z,28.90
2022-08-02T20:56:46.424Z,28.87
2022-08-02T20:59:42.052Z,28.86
2022-08-02T21:02:32.468Z,28.83
2022-08-02T21:05:43.323Z,28.83
2022-08-02T21:08:31.284Z,28.81
2022-08-02T21:11:25.522Z,28.80
2022-08-02T21:14:23.608Z,28.79
2022-08-02T21:17:17.966Z,28.79
2022-08-02T21:20:12.791Z,28.79
2022-08-02T21:23:18.259Z,28.78
2022-08-02T21:26:09.967Z,28.80
2022-08-02T21:29:00.953Z,28.78
2022-08-02T21:31:53.264Z,28.77
2022-08-02T21:34:42.686Z,28.75
2022-08-02T21:37:33.333Z,28.73
2022-08-02T21:40:35.136Z,28.76
2022-08-02T21:43:35.212Z,28.73
2022-08-02T21:46:28.252Z,28.73
2022-08-02T21:49:18.848Z,28.73
2022-08-02T21:52:10.276Z,28.72
2022-08-02T21:54:59.902Z,28.69
2022-08-02T21:57:49.506Z,28.70
2022-08-02T22:00:39.320Z,28.68
2022-08-02T22:03:30.171Z,28.66
2022-08-02T22:06:19.961Z,28.68
2022-08-02T22:09:17.386Z,28.63
2022-08-02T22:12:10.366Z,28.62
2022-08-02T22:15:10.783Z,28.61
2022-08-02T22:18:00.708Z,28.62
2022-08-02T22:20:50.089Z,28.62
2022-08-02T22:23:50.012Z,28.65
2022-08-02T22:26:40.112Z,28.59
2022-08-02T22:29:29.627Z,28.66
2022-08-02T22:32:40.923Z,28.63
2022-08-02T22:35:31.213Z,28.62
2022-08-02T22:38:22.083Z,28.62
2022-08-02T22:41:17.624Z,28.60
2022-08-02T22:44:07.500Z,28.58
2022-08-02T22:46:57.564Z,28.58
2022-08-02T22:49:53.079Z,28.59
2022-08-02T22:52:46.916Z,28.60
2022-08-02T22:55:41.601Z,28.56
2022-08-02T22:58:31.703Z,28.56
2022-08-02T22:58:45.839Z,29.27
2022-08-02T22:58:49.219Z,29.94
2022-08-02T23:01:22.322Z,28.57
2022-08-02T23:04:12.747Z,28.56
2022-08-02T23:07:02.887Z,28.56
2022-08-02T23:09:52.728Z,28.57
2022-08-02T23:12:43.353Z,28.57
2022-08-02T23:15:54.921Z,28.57
2022-08-02T23:19:04.470Z,28.55
2022-08-02T23:22:02.639Z,28.58
2022-08-02T23:24:53.644Z,28.61
2022-08-02T23:27:49.906Z,28.61
2022-08-02T23:30:40.255Z,28.61
2022-08-02T23:33:29.775Z,28.62
2022-08-02T23:36:19.035Z,28.64
2022-08-02T23:39:08.953Z,28.57
2022-08-02T23:41:59.581Z,28.57
2022-08-02T23:44:48.951Z,28.58
2022-08-02T23:47:38.770Z,28.59
2022-08-02T23:50:28.484Z,28.61
2022-08-02T23:53:18.057Z,28.65
2022-08-02T23:56:08.347Z,28.65
2022-08-02T23:58:58.507Z,28.65
